Carnival Glory — 3FPS9 — position and weather

sailwx.info

Track history (hours):
 
Tides and Currents Weather Stations Pressure Air Temp Water Temp Dewpoint Dewpoint Depression Visibility Wind Speed Wind Dir Waves Ship Positions

Carnival Glory

Operator: Carnival Cruise Lines

Last reported at 2018-Dec-10 10:00 UTC. Time now 2018-Dec-12 15:07 UTC.
Position N 21°48' W 071°24'.

Type: Passenger vessel. MMSI: 357659000.

Wind from 160 at 24 knots

Barometer 1016.6 mb
Air temperature 26.1 ° C
Dewpoint 20.5 ° C
Water temperature 28.0 ° C

Date/timePositionNaut miles runAvg speedWind from/ knotsBaromVisibWave heightAir tempDewpointWater temp
2018-Dec-10 10:00N 21°48' W 071°24'50415.4 160 / 241016.6 26.120.528.0
2018-Dec-09 01:12N 26°14' W 079°12'316.1
2018-Dec-09 01:00N 26°14' W 079°16'815.6
2018-Dec-09 00:30N 26°12' W 079°24'816.8
2018-Dec-09 00:00N 26°07' W 079°32'817.0
2018-Dec-08 23:30N 26°02' W 079°40'817.0
2018-Dec-08 23:00N 25°57' W 079°47'817.0
2018-Dec-08 22:30N 25°52' W 079°55'815.9
2018-Dec-08 22:00N 25°47' W 080°01'4 8.6
2018-Dec-08 21:30N 25°46' W 080°06'4 7.9
2018-Dec-08 21:00N 25°47' W 080°10'0 0.0
2018-Dec-08 20:30N 25°47' W 080°10'0 0.0
2018-Dec-08 20:00N 25°47' W 080°10'0 0.0
2018-Dec-08 19:30N 25°47' W 080°10'0 0.0
2018-Dec-08 19:00N 25°47' W 080°10'0 0.0
2018-Dec-08 18:30N 25°47' W 080°10'0 0.0
2018-Dec-08 18:00N 25°47' W 080°10'0 0.0
2018-Dec-08 17:27N 25°47' W 080°10'0 0.0
2018-Dec-08 17:00N 25°47' W 080°10'0 0.0
2018-Dec-08 16:30N 25°47' W 080°10'0 0.0
2018-Dec-08 15:54N 25°47' W 080°10'0 0.0
2018-Dec-08 15:30N 25°47' W 080°10'0 0.0
2018-Dec-08 14:54N 25°47' W 080°10'0 0.0
2018-Dec-08 14:27N 25°47' W 080°10'0 0.0
2018-Dec-08 13:57N 25°47' W 080°10'0 0.0
2018-Dec-08 13:30N 25°47' W 080°10'0 0.0
2018-Dec-08 13:00N 25°47' W 080°10'0 0.0
2018-Dec-08 12:27N 25°47' W 080°10'0 0.0
2018-Dec-08 11:54N 25°47' W 080°10'0 0.0
2018-Dec-08 11:30N 25°47' W 080°10'0 0.0
2018-Dec-08 11:00N 25°47' W 080°10'1 1.4
2018-Dec-08 10:31N 25°47' W 080°11'2 4.6
2018-Dec-08 10:00N 25°46' W 080°09'611.1
2018-Dec-08 09:30N 25°47' W 080°02'5 9.6
2018-Dec-08 09:00N 25°45' W 079°58'611.4
2018-Dec-08 08:30N 25°42' W 079°52'611.8
2018-Dec-08 08:00N 25°40' W 079°46'612.5
2018-Dec-08 07:30N 25°36' W 079°41'714.0
2018-Dec-08 07:00N 25°29' W 079°40'714.1
2018-Dec-08 06:30N 25°22' W 079°40'49016.2
2018-Dec-07 00:22N 20°39' W 086°54'515.3
2018-Dec-07 00:00N 20°34' W 086°57'510.9
2018-Dec-06 23:30N 20°30' W 086°59'1 1.8
2018-Dec-06 22:52N 20°29' W 086°59'0 0.0
2018-Dec-06 22:28N 20°29' W 086°59'0 0.0
2018-Dec-06 21:58N 20°29' W 086°59'0 0.0
2018-Dec-06 21:28N 20°29' W 086°59'0 0.0
2018-Dec-06 20:58N 20°29' W 086°59'0 0.0
2018-Dec-06 20:25N 20°29' W 086°59'0 0.0
2018-Dec-06 19:58N 20°29' W 086°59'0 0.0
2018-Dec-06 19:28N 20°29' W 086°59'0 0.0
2018-Dec-06 18:58N 20°29' W 086°59'0 0.0
2018-Dec-06 18:22N 20°29' W 086°59'0 0.0
2018-Dec-06 17:58N 20°29' W 086°59'0 0.0
2018-Dec-06 17:28N 20°29' W 086°59'0 0.0
2018-Dec-06 16:58N 20°29' W 086°59'0 0.0
2018-Dec-06 16:28N 20°29' W 086°59'0 0.0
2018-Dec-06 15:58N 20°29' W 086°59'0 0.0
2018-Dec-06 15:28N 20°29' W 086°59'0 0.0
2018-Dec-06 14:58N 20°29' W 086°59'0 0.0
2018-Dec-06 14:28N 20°29' W 086°59'0 0.0
2018-Dec-06 13:58N 20°29' W 086°59'0 0.0
2018-Dec-06 13:28N 20°29' W 086°59'0 0.0
2018-Dec-06 12:58N 20°29' W 086°59'0 0.3
2018-Dec-06 12:30N 20°29' W 086°59'3 5.7
2018-Dec-06 12:00N 20°30' W 087°01'714.7
2018-Dec-06 11:30N 20°23' W 087°04'  
2018-Dec-02 00:12N 25°19' W 079°39'317.4
2018-Dec-02 00:00N 25°22' W 079°39'917.3
2018-Dec-01 23:30N 25°31' W 079°40'816.1
2018-Dec-01 23:00N 25°38' W 079°45'917.4
2018-Dec-01 22:30N 25°42' W 079°54'815.3
2018-Dec-01 22:00N 25°46' W 080°00'612.0
2018-Dec-01 21:30N 25°45' W 080°07'3 6.3
2018-Dec-01 21:00N 25°47' W 080°10'0 0.0
2018-Dec-01 20:30N 25°47' W 080°10'0 0.0
2018-Dec-01 20:00N 25°47' W 080°10'0 0.0
2018-Dec-01 19:27N 25°47' W 080°10'0 0.0
2018-Dec-01 18:57N 25°47' W 080°10'0 0.0
2018-Dec-01 18:27N 25°47' W 080°10'0 0.0
2018-Dec-01 18:00N 25°47' W 080°10'0 0.0
2018-Dec-01 17:30N 25°47' W 080°10'0 0.0
2018-Dec-01 17:00N 25°47' W 080°10'0 0.0
2018-Dec-01 16:24N 25°47' W 080°10'0 0.0
2018-Dec-01 16:00N 25°47' W 080°10'0 0.0
2018-Dec-01 15:27N 25°47' W 080°10'0 0.0
2018-Dec-01 14:57N 25°47' W 080°10'0 0.0
2018-Dec-01 14:27N 25°47' W 080°10'0 0.0
2018-Dec-01 13:57N 25°47' W 080°10'0 0.0
2018-Dec-01 13:27N 25°47' W 080°10'0 0.0
2018-Dec-01 12:57N 25°47' W 080°10'0 0.0
2018-Dec-01 12:30N 25°47' W 080°10'0 0.0
2018-Dec-01 12:00N 25°47' W 080°10'0 0.0
2018-Dec-01 11:30N 25°47' W 080°10'0 0.0
2018-Dec-01 11:00N 25°47' W 080°10'0 0.0
2018-Dec-01 10:30N 25°47' W 080°10'1 1.4
2018-Dec-01 10:00N 25°47' W 080°11'3 5.5
2018-Dec-01 09:30N 25°46' W 080°08'611.0
2018-Dec-01 09:00N 25°47' W 080°02'612.2
2018-Dec-01 08:30N 25°45' W 079°56'917.3
2018-Dec-01 08:00N 25°43' W 079°46'917.2
2018-Dec-01 07:30N 25°35' W 079°43'1019.4
2018-Dec-01 07:00N 25°26' W 079°40'15221.6
2018-Dec-01 00:00N 23°00' W 078°54'9919.8 060 / 151017.710.8 25.020.528.0
2018-Nov-30 19:00N 22°06' W 077°24'13422.3 070 / 211017.410.8 28.025.229.0
2018-Nov-30 13:00N 21°12' W 075°12'   050 / 22 10.8 25.020.529.0
Track history (hours):
 
Tides and Currents Weather Stations Pressure Air Temp Water Temp Dewpoint Dewpoint Depression Visibility Wind Speed Wind Dir Waves Ship Positions

Carnival Glory

Operator: Carnival Cruise Lines

Last reported at 2018-Dec-10 10:00 UTC. Time now 2018-Dec-12 15:07 UTC.
Position N 21°48' W 071°24'.

Type: Passenger vessel. MMSI: 357659000.

Wind from 160 at 24 knots

Barometer 1016.6 mb
Air temperature 26.1 ° C
Dewpoint 20.5 ° C
Water temperature 28.0 ° C

Date/timePositionNaut miles runAvg speedWind from/ knotsBaromVisibWave heightAir tempDewpointWater temp
2018-Dec-10 10:00N 21°48' W 071°24'50415.4 160 / 241016.6 26.120.528.0
2018-Dec-09 01:12N 26°14' W 079°12'316.1
2018-Dec-09 01:00N 26°14' W 079°16'815.6
2018-Dec-09 00:30N 26°12' W 079°24'816.8
2018-Dec-09 00:00N 26°07' W 079°32'817.0
2018-Dec-08 23:30N 26°02' W 079°40'817.0
2018-Dec-08 23:00N 25°57' W 079°47'817.0
2018-Dec-08 22:30N 25°52' W 079°55'815.9
2018-Dec-08 22:00N 25°47' W 080°01'4 8.6
2018-Dec-08 21:30N 25°46' W 080°06'4 7.9
2018-Dec-08 21:00N 25°47' W 080°10'0 0.0
2018-Dec-08 20:30N 25°47' W 080°10'0 0.0
2018-Dec-08 20:00N 25°47' W 080°10'0 0.0
2018-Dec-08 19:30N 25°47' W 080°10'0 0.0
2018-Dec-08 19:00N 25°47' W 080°10'0 0.0
2018-Dec-08 18:30N 25°47' W 080°10'0 0.0
2018-Dec-08 18:00N 25°47' W 080°10'0 0.0
2018-Dec-08 17:27N 25°47' W 080°10'0 0.0
2018-Dec-08 17:00N 25°47' W 080°10'0 0.0
2018-Dec-08 16:30N 25°47' W 080°10'0 0.0
2018-Dec-08 15:54N 25°47' W 080°10'0 0.0
2018-Dec-08 15:30N 25°47' W 080°10'0 0.0
2018-Dec-08 14:54N 25°47' W 080°10'0 0.0
2018-Dec-08 14:27N 25°47' W 080°10'0 0.0
2018-Dec-08 13:57N 25°47' W 080°10'0 0.0
2018-Dec-08 13:30N 25°47' W 080°10'0 0.0
2018-Dec-08 13:00N 25°47' W 080°10'0 0.0
2018-Dec-08 12:27N 25°47' W 080°10'0 0.0
2018-Dec-08 11:54N 25°47' W 080°10'0 0.0
2018-Dec-08 11:30N 25°47' W 080°10'0 0.0
2018-Dec-08 11:00N 25°47' W 080°10'1 1.4
2018-Dec-08 10:31N 25°47' W 080°11'2 4.6
2018-Dec-08 10:00N 25°46' W 080°09'611.1
2018-Dec-08 09:30N 25°47' W 080°02'5 9.6
2018-Dec-08 09:00N 25°45' W 079°58'611.4
2018-Dec-08 08:30N 25°42' W 079°52'611.8
2018-Dec-08 08:00N 25°40' W 079°46'612.5
2018-Dec-08 07:30N 25°36' W 079°41'714.0
2018-Dec-08 07:00N 25°29' W 079°40'714.1
2018-Dec-08 06:30N 25°22' W 079°40'49016.2
2018-Dec-07 00:22N 20°39' W 086°54'515.3
2018-Dec-07 00:00N 20°34' W 086°57'510.9
2018-Dec-06 23:30N 20°30' W 086°59'1 1.8
2018-Dec-06 22:52N 20°29' W 086°59'0 0.0
2018-Dec-06 22:28N 20°29' W 086°59'0 0.0
2018-Dec-06 21:58N 20°29' W 086°59'0 0.0
2018-Dec-06 21:28N 20°29' W 086°59'0 0.0
2018-Dec-06 20:58N 20°29' W 086°59'0 0.0
2018-Dec-06 20:25N 20°29' W 086°59'0 0.0
2018-Dec-06 19:58N 20°29' W 086°59'0 0.0
2018-Dec-06 19:28N 20°29' W 086°59'0 0.0
2018-Dec-06 18:58N 20°29' W 086°59'0 0.0
2018-Dec-06 18:22N 20°29' W 086°59'0 0.0
2018-Dec-06 17:58N 20°29' W 086°59'0 0.0
2018-Dec-06 17:28N 20°29' W 086°59'0 0.0
2018-Dec-06 16:58N 20°29' W 086°59'0 0.0
2018-Dec-06 16:28N 20°29' W 086°59'0 0.0
2018-Dec-06 15:58N 20°29' W 086°59'0 0.0
2018-Dec-06 15:28N 20°29' W 086°59'0 0.0
2018-Dec-06 14:58N 20°29' W 086°59'0 0.0
2018-Dec-06 14:28N 20°29' W 086°59'0 0.0
2018-Dec-06 13:58N 20°29' W 086°59'0 0.0
2018-Dec-06 13:28N 20°29' W 086°59'0 0.0
2018-Dec-06 12:58N 20°29' W 086°59'0 0.3
2018-Dec-06 12:30N 20°29' W 086°59'3 5.7
2018-Dec-06 12:00N 20°30' W 087°01'714.7
2018-Dec-06 11:30N 20°23' W 087°04'  
2018-Dec-02 00:12N 25°19' W 079°39'317.4
2018-Dec-02 00:00N 25°22' W 079°39'917.3
2018-Dec-01 23:30N 25°31' W 079°40'816.1
2018-Dec-01 23:00N 25°38' W 079°45'917.4
2018-Dec-01 22:30N 25°42' W 079°54'815.3
2018-Dec-01 22:00N 25°46' W 080°00'612.0
2018-Dec-01 21:30N 25°45' W 080°07'3 6.3
2018-Dec-01 21:00N 25°47' W 080°10'0 0.0
2018-Dec-01 20:30N 25°47' W 080°10'0 0.0
2018-Dec-01 20:00N 25°47' W 080°10'0 0.0
2018-Dec-01 19:27N 25°47' W 080°10'0 0.0
2018-Dec-01 18:57N 25°47' W 080°10'0 0.0
2018-Dec-01 18:27N 25°47' W 080°10'0 0.0
2018-Dec-01 18:00N 25°47' W 080°10'0 0.0
2018-Dec-01 17:30N 25°47' W 080°10'0 0.0
2018-Dec-01 17:00N 25°47' W 080°10'0 0.0
2018-Dec-01 16:24N 25°47' W 080°10'0 0.0
2018-Dec-01 16:00N 25°47' W 080°10'0 0.0
2018-Dec-01 15:27N 25°47' W 080°10'0 0.0
2018-Dec-01 14:57N 25°47' W 080°10'0 0.0
2018-Dec-01 14:27N 25°47' W 080°10'0 0.0
2018-Dec-01 13:57N 25°47' W 080°10'0 0.0
2018-Dec-01 13:27N 25°47' W 080°10'0 0.0
2018-Dec-01 12:57N 25°47' W 080°10'0 0.0
2018-Dec-01 12:30N 25°47' W 080°10'0 0.0
2018-Dec-01 12:00N 25°47' W 080°10'0 0.0
2018-Dec-01 11:30N 25°47' W 080°10'0 0.0
2018-Dec-01 11:00N 25°47' W 080°10'0 0.0
2018-Dec-01 10:30N 25°47' W 080°10'1 1.4
2018-Dec-01 10:00N 25°47' W 080°11'3 5.5
2018-Dec-01 09:30N 25°46' W 080°08'611.0
2018-Dec-01 09:00N 25°47' W 080°02'612.2
2018-Dec-01 08:30N 25°45' W 079°56'917.3
2018-Dec-01 08:00N 25°43' W 079°46'917.2
2018-Dec-01 07:30N 25°35' W 079°43'1019.4
2018-Dec-01 07:00N 25°26' W 079°40'15221.6
2018-Dec-01 00:00N 23°00' W 078°54'9919.8 060 / 151017.710.8 25.020.528.0
2018-Nov-30 19:00N 22°06' W 077°24'13422.3 070 / 211017.410.8 28.025.229.0
2018-Nov-30 13:00N 21°12' W 075°12'   050 / 22 10.8 25.020.529.0

Dump ship's entire track history